RAIN

Not for real navigation. The accuracy of this data is not assured See disclaimer for more information



ICAO NAME COUNTRY WIND Kt GUST Kt VIS m TEMP/DEW C BARO METAR
LRSV Suceava / Salcea Romania 4 0 200 4/3 29.91 LRSV 181700Z 09004KT 0200 R34/0650N -RA FG BKN003 04/03 Q1013 R16/29//95
KCVO Corvallis, Corvallis Municipal OR United States 0 0 400 2/2 30.31 KCVO 181656Z AUTO 00000KT 0.25SM FG OVC002 02/02 A3031 RMK AO2 SLP267 T00220022 FZRANO RVRNO
PAHL Huslia, Huslia Airport AK United States 0 0 400 -13/-14 30.15 PAHL 181656Z AUTO 00000KT 0.25SM FZFG OVC002 M13/M14 A3015 RMK AO2 SLP221 T11281144 FZRANO
KMTO MATTOON/CHARLESTON COLES CO IL United States 20 25 800 14/14 29.30 KMTO 181710Z AUTO 33020G25KT 0.5SM +TSRA FG BKN006 BKN021 OVC050 14/14 A2930 RMK AO2 PK WND 30030/17
KOZW Howell, Livingston County Airp MI United States 3 0 800 7/7 29.39 KOZW 181654Z AUTO 12003KT 0.5SM RA OVC002 07/07 A2939 RMK AO2 P0002 T00660066

Show more